sensor_id;sensor_type;location;lat;lon;timestamp;pressure;altitude;pressure_sealevel;temperature;humidity
49801;BME280;35698;50.232;30.540;2023-04-05T00:00:01;100302.72;;;10.89;100.00
49801;BME280;35698;50.232;30.540;2023-04-05T00:01:05;100286.64;;;10.62;100.00
49801;BME280;35698;50.232;30.540;2023-04-05T00:02:18;100278.88;;;10.74;100.00
49801;BME280;35698;50.232;30.540;2023-04-05T00:03:23;100291.37;;;10.87;100.00
49801;BME280;35698;50.232;30.540;2023-04-05T00:04:37;100274.14;;;10.95;100.00
49801;BME280;35698;50.232;30.540;2023-04-05T00:05:42;100274.81;;;10.99;100.00
49801;BME280;35698;50.232;30.540;2023-04-05T00:06:47;100268.21;;;10.76;100.00
49801;BME280;35698;50.232;30.540;2023-04-05T00:08:09;100271.62;;;10.78;100.00
49801;BME280;35698;50.232;30.540;2023-04-05T00:09:21;100262.80;;;10.93;100.00
49801;BME280;35698;50.232;30.540;2023-04-05T00:10:26;100296.34;;;26.33;100.00
49801;BME280;35698;50.232;30.540;2023-04-05T00:11:32;100303.13;;;17.40;100.00
49801;BME280;35698;50.232;30.540;2023-04-05T00:12:56;100302.55;;;15.03;100.00
49801;BME280;35698;50.232;30.540;2023-04-05T00:14:00;100307.22;;;13.90;100.00
49801;BME280;35698;50.232;30.540;2023-04-05T00:15:13;100300.45;;;13.61;100.00
49801;BME280;35698;50.232;30.540;2023-04-05T00:16:18;100296.52;;;13.14;100.00
49801;BME280;35698;50.232;30.540;2023-04-05T00:17:22;100289.72;;;12.97;100.00
49801;BME280;35698;50.232;30.540;2023-04-05T00:18:45;100292.63;;;12.80;100.00
49801;BME280;35698;50.232;30.540;2023-04-05T00:19:57;100286.43;;;13.06;100.00
49801;BME280;35698;50.232;30.540;2023-04-05T00:21:02;100281.48;;;12.75;100.00
49801;BME280;35698;50.232;30.540;2023-04-05T00:22:07;100274.53;;;12.60;100.00
49801;BME280;35698;50.232;30.540;2023-04-05T00:23:29;100265.17;;;12.81;100.00
49801;BME280;35698;50.232;30.540;2023-04-05T00:24:32;100264.55;;;10.78;100.00
49801;BME280;35698;50.232;30.540;2023-04-05T00:25:36;100268.03;;;10.79;100.00
49801;BME280;35698;50.232;30.540;2023-04-05T00:26:40;100260.70;;;10.84;100.00
49801;BME280;35698;50.232;30.540;2023-04-05T00:27:44;100262.67;;;11.10;100.00
49801;BME280;35698;50.232;30.540;2023-04-05T00:28:56;100255.86;;;11.06;100.00
49801;BME280;35698;50.232;30.540;2023-04-05T00:29:59;100254.77;;;10.65;100.00
49801;BME280;35698;50.232;30.540;2023-04-05T00:31:04;100254.91;;;10.77;100.00
49801;BME280;35698;50.232;30.540;2023-04-05T00:32:16;100248.38;;;10.99;100.00
49801;BME280;35698;50.232;30.540;2023-04-05T00:33:20;100256.55;;;15.25;100.00
49801;BME280;35698;50.232;30.540;2023-04-05T00:34:39;100253.47;;;12.44;100.00
49801;BME280;35698;50.232;30.540;2023-04-05T00:35:43;100244.73;;;12.15;100.00
49801;BME280;35698;50.232;30.540;2023-04-05T00:36:47;100248.96;;;11.91;100.00
49801;BME280;35698;50.232;30.540;2023-04-05T00:37:59;100244.99;;;11.84;100.00
49801;BME280;35698;50.232;30.540;2023-04-05T00:39:03;100262.09;;;12.06;100.00
49801;BME280;35698;50.232;30.540;2023-04-05T00:40:07;100271.13;;;12.17;100.00
49801;BME280;35698;50.232;30.540;2023-04-05T00:41:12;100263.12;;;12.45;100.00
49801;BME280;35698;50.232;30.540;2023-04-05T00:42:24;100261.80;;;12.11;100.00
49801;BME280;35698;50.232;30.540;2023-04-05T00:43:28;100269.06;;;11.65;100.00
49801;BME280;35698;50.232;30.540;2023-04-05T00:44:40;100261.31;;;11.76;100.00
49801;BME280;35698;50.232;30.540;2023-04-05T00:45:44;100266.38;;;11.22;100.00
49801;BME280;35698;50.232;30.540;2023-04-05T00:46:48;100272.75;;;11.76;100.00
49801;BME280;35698;50.232;30.540;2023-04-05T00:47:52;100269.73;;;11.68;100.00
49801;BME280;35698;50.232;30.540;2023-04-05T00:49:06;100255.27;;;11.60;100.00
49801;BME280;35698;50.232;30.540;2023-04-05T00:50:11;100265.09;;;11.58;100.00
49801;BME280;35698;50.232;30.540;2023-04-05T00:51:16;100254.77;;;11.39;100.00
49801;BME280;35698;50.232;30.540;2023-04-05T00:52:29;100248.96;;;11.91;100.00
49801;BME280;35698;50.232;30.540;2023-04-05T00:53:33;100247.36;;;11.88;100.00
49801;BME280;35698;50.232;30.540;2023-04-05T00:54:49;100237.35;;;12.20;100.00
49801;BME280;35698;50.232;30.540;2023-04-05T00:55:55;100239.11;;;12.07;100.00
49801;BME280;35698;50.232;30.540;2023-04-05T00:57:08;100228.98;;;12.40;100.00
49801;BME280;35698;50.232;30.540;2023-04-05T00:58:12;100240.84;;;11.79;100.00
49801;BME280;35698;50.232;30.540;2023-04-05T00:59:33;100236.65;;;11.61;100.00
49801;BME280;35698;50.232;30.540;2023-04-05T01:00:37;100239.09;;;11.50;100.00
49801;BME280;35698;50.232;30.540;2023-04-05T01:04:31;100246.12;;;11.79;100.00
49801;BME280;35698;50.232;30.540;2023-04-05T01:07:50;100241.11;;;11.89;100.00
49801;BME280;35698;50.232;30.540;2023-04-05T01:08:59;100245.56;;;11.89;100.00
49801;BME280;35698;50.232;30.540;2023-04-05T01:10:41;100235.97;;;11.43;100.00
49801;BME280;35698;50.232;30.540;2023-04-05T01:11:56;100243.06;;;11.43;100.00
49801;BME280;35698;50.232;30.540;2023-04-05T01:13:00;100236.80;;;11.30;100.00
49801;BME280;35698;50.232;30.540;2023-04-05T01:14:22;100229.83;;;11.43;100.00
49801;BME280;35698;50.232;30.540;2023-04-05T01:15:28;100237.29;;;11.36;100.00
49801;BME280;35698;50.232;30.540;2023-04-05T01:16:40;100240.80;;;11.51;100.00
49801;BME280;35698;50.232;30.540;2023-04-05T01:17:43;100237.37;;;11.35;100.00
49801;BME280;35698;50.232;30.540;2023-04-05T01:19:06;100235.22;;;11.41;100.00
49801;BME280;35698;50.232;30.540;2023-04-05T01:20:10;100228.23;;;11.40;100.00
49801;BME280;35698;50.232;30.540;2023-04-05T01:30:33;100205.17;;;11.42;100.00
49801;BME280;35698;50.232;30.540;2023-04-05T01:31:59;100205.09;;;11.58;100.00
49801;BME280;35698;50.232;30.540;2023-04-05T01:35:09;100200.17;;;11.38;100.00
49801;BME280;35698;50.232;30.540;2023-04-05T01:36:16;100202.34;;;11.45;100.00
49801;BME280;35698;50.232;30.540;2023-04-05T01:37:31;100191.29;;;11.39;100.00
49801;BME280;35698;50.232;30.540;2023-04-05T01:38:37;100193.95;;;11.25;100.00
49801;BME280;35698;50.232;30.540;2023-04-05T01:40:03;100191.50;;;11.22;100.00
49801;BME280;35698;50.232;30.540;2023-04-05T01:41:15;100187.70;;;11.40;100.00
49801;BME280;35698;50.232;30.540;2023-04-05T01:42:23;100193.20;;;11.23;100.00
49801;BME280;35698;50.232;30.540;2023-04-05T01:43:36;100188.83;;;11.36;100.00
49801;BME280;35698;50.232;30.540;2023-04-05T01:44:40;100188.55;;;11.12;100.00
49801;BME280;35698;50.232;30.540;2023-04-05T01:45:44;100182.99;;;10.72;100.00
49801;BME280;35698;50.232;30.540;2023-04-05T01:46:47;100179.59;;;11.14;100.00
49801;BME280;35698;50.232;30.540;2023-04-05T01:48:00;100174.09;;;11.46;100.00
49801;BME280;35698;50.232;30.540;2023-04-05T01:49:03;100174.83;;;10.91;100.00
49801;BME280;35698;50.232;30.540;2023-04-05T01:50:08;100173.27;;;10.73;100.00
49801;BME280;35698;50.232;30.540;2023-04-05T01:51:20;100170.79;;;11.28;100.00
49801;BME280;35698;50.232;30.540;2023-04-05T01:52:24;100166.19;;;11.18;100.00
49801;BME280;35698;50.232;30.540;2023-04-05T01:53:27;100163.43;;;11.05;100.00
49801;BME280;35698;50.232;30.540;2023-04-05T01:54:38;100166.94;;;11.20;100.00
49801;BME280;35698;50.232;30.540;2023-04-05T01:55:42;100172.70;;;11.12;100.00
49801;BME280;35698;50.232;30.540;2023-04-05T01:56:45;100171.66;;;11.14;100.00
49801;BME280;35698;50.232;30.540;2023-04-05T01:57:50;100174.67;;;11.08;100.00
49801;BME280;35698;50.232;30.540;2023-04-05T01:58:57;100166.94;;;11.20;100.00
49801;BME280;35698;50.232;30.540;2023-04-05T02:00:09;100168.91;;;11.44;100.00
49801;BME280;35698;50.232;30.540;2023-04-05T02:01:13;100176.67;;;11.19;100.00
49801;BME280;35698;50.232;30.540;2023-04-05T02:02:17;100172.69;;;11.40;100.00
49801;BME280;35698;50.232;30.540;2023-04-05T02:03:29;100173.42;;;11.71;100.00
49801;BME280;35698;50.232;30.540;2023-04-05T02:04:33;100166.06;;;11.47;100.00
49801;BME280;35698;50.232;30.540;2023-04-05T02:05:45;100167.30;;;11.56;100.00
49801;BME280;35698;50.232;30.540;2023-04-05T02:06:49;100169.75;;;11.45;100.00
49801;BME280;35698;50.232;30.540;2023-04-05T02:08:00;100164.65;;;11.56;100.00
49801;BME280;35698;50.232;30.540;2023-04-05T02:09:04;100161.12;;;11.98;100.00
49801;BME280;35698;50.232;30.540;2023-04-05T02:10:21;100164.85;;;11.10;100.00
49801;BME280;35698;50.232;30.540;2023-04-05T02:11:24;100156.05;;;10.96;100.00
49801;BME280;35698;50.232;30.540;2023-04-05T02:12:47;100166.87;;;10.77;100.00
49801;BME280;35698;50.232;30.540;2023-04-05T02:13:58;100165.26;;;10.74;100.00
49801;BME280;35698;50.232;30.540;2023-04-05T02:15:02;100158.03;;;10.92;100.00
49801;BME280;35698;50.232;30.540;2023-04-05T02:16:24;100163.23;;;11.36;100.00
49801;BME280;35698;50.232;30.540;2023-04-05T02:17:36;100159.84;;;11.06;100.00
49801;BME280;35698;50.232;30.540;2023-04-05T02:18:39;100157.48;;;11.01;100.00
49801;BME280;35698;50.232;30.540;2023-04-05T02:20:01;100149.92;;;10.95;100.00
49801;BME280;35698;50.232;30.540;2023-04-05T02:21:13;100162.34;;;10.79;100.00
49801;BME280;35698;50.232;30.540;2023-04-05T02:22:16;100167.50;;;10.66;100.00
49801;BME280;35698;50.232;30.540;2023-04-05T02:23:38;100161.04;;;10.86;100.00
49801;BME280;35698;50.232;30.540;2023-04-05T02:24:42;100165.87;;;10.94;100.00
49801;BME280;35698;50.232;30.540;2023-04-05T02:25:53;100176.73;;;11.03;100.00
49801;BME280;35698;50.232;30.540;2023-04-05T02:26:56;100162.25;;;10.80;100.00
49801;BME280;35698;50.232;30.540;2023-04-05T02:28:18;100167.62;;;10.79;100.00
49801;BME280;35698;50.232;30.540;2023-04-05T02:29:22;100167.23;;;10.71;100.00
49801;BME280;35698;50.232;30.540;2023-04-05T02:30:33;100162.03;;;10.69;100.00
49801;BME280;35698;50.232;30.540;2023-04-05T02:31:37;100166.91;;;10.61;100.00
49801;BME280;35698;50.232;30.540;2023-04-05T02:32:58;100163.46;;;10.45;100.00
49801;BME280;35698;50.232;30.540;2023-04-05T02:34:02;100155.80;;;10.40;100.00
49801;BME280;35698;50.232;30.540;2023-04-05T02:35:06;100162.89;;;10.70;100.00
49801;BME280;35698;50.232;30.540;2023-04-05T02:36:18;100164.86;;;10.66;100.00
49801;BME280;35698;50.232;30.540;2023-04-05T02:37:22;100164.45;;;10.58;100.00
49801;BME280;35698;50.232;30.540;2023-04-05T02:38:44;100163.84;;;10.39;100.00
49801;BME280;35698;50.232;30.540;2023-04-05T02:39:56;100167.62;;;10.79;100.00
49801;BME280;35698;50.232;30.540;2023-04-05T02:40:59;100164.80;;;10.82;100.00
49801;BME280;35698;50.232;30.540;2023-04-05T02:42:03;100164.34;;;10.90;100.00
49801;BME280;35698;50.232;30.540;2023-04-05T02:43:06;100152.86;;;11.05;100.00
49801;BME280;35698;50.232;30.540;2023-04-05T02:44:10;100162.21;;;11.10;100.00
49801;BME280;35698;50.232;30.540;2023-04-05T02:45:22;100159.11;;;11.18;100.00
49801;BME280;35698;50.232;30.540;2023-04-05T02:46:26;100155.80;;;11.14;100.00
49801;BME280;35698;50.232;30.540;2023-04-05T02:47:29;100153.41;;;10.96;100.00
49801;BME280;35698;50.232;30.540;2023-04-05T02:48:41;100165.04;;;11.07;100.00
49801;BME280;35698;50.232;30.540;2023-04-05T02:49:44;100156.78;;;10.83;100.00
49801;BME280;35698;50.232;30.540;2023-04-05T02:50:56;100147.30;;;11.09;100.00
49801;BME280;35698;50.232;30.540;2023-04-05T02:51:59;100156.02;;;10.81;100.00
49801;BME280;35698;50.232;30.540;2023-04-05T02:53:03;100144.79;;;10.78;100.00
49801;BME280;35698;50.232;30.540;2023-04-05T02:54:06;100153.20;;;10.84;100.00
49801;BME280;35698;50.232;30.540;2023-04-05T02:55:29;100147.67;;;11.18;100.00
49801;BME280;35698;50.232;30.540;2023-04-05T02:56:33;100146.53;;;11.07;100.00
49801;BME280;35698;50.232;30.540;2023-04-05T02:57:37;100146.34;;;11.10;100.00
49801;BME280;35698;50.232;30.540;2023-04-05T02:58:48;100146.64;;;11.20;100.00
49801;BME280;35698;50.232;30.540;2023-04-05T02:59:52;100145.20;;;11.29;100.00
49801;BME280;35698;50.232;30.540;2023-04-05T03:00:55;100149.85;;;11.25;100.00
49801;BME280;35698;50.232;30.540;2023-04-05T03:02:08;100148.87;;;11.55;100.00
49801;BME280;35698;50.232;30.540;2023-04-05T03:03:12;100160.95;;;10.88;100.00
49801;BME280;35698;50.232;30.540;2023-04-05T03:04:23;100156.35;;;11.05;100.00
49801;BME280;35698;50.232;30.540;2023-04-05T03:05:27;100162.47;;;10.92;100.00
49801;BME280;35698;50.232;30.540;2023-04-05T03:06:39;100157.30;;;11.04;100.00
49801;BME280;35698;50.232;30.540;2023-04-05T03:07:42;100168.34;;;10.67;100.00
49801;BME280;35698;50.232;30.540;2023-04-05T03:08:55;100169.96;;;10.69;100.00
49801;BME280;35698;50.232;30.540;2023-04-05T03:09:58;100174.03;;;10.75;100.00
49801;BME280;35698;50.232;30.540;2023-04-05T03:11:10;100163.68;;;10.86;100.00
49801;BME280;35698;50.232;30.540;2023-04-05T03:12:14;100176.44;;;10.94;100.00
49801;BME280;35698;50.232;30.540;2023-04-05T03:13:26;100170.67;;;10.87;100.00
49801;BME280;35698;50.232;30.540;2023-04-05T03:14:29;100171.70;;;10.84;100.00
49801;BME280;35698;50.232;30.540;2023-04-05T03:15:33;100166.41;;;10.84;100.00
49801;BME280;35698;50.232;30.540;2023-04-05T03:16:45;100156.81;;;10.98;100.00
49801;BME280;35698;50.232;30.540;2023-04-05T03:17:49;100156.14;;;10.94;100.00
49801;BME280;35698;50.232;30.540;2023-04-05T03:19:01;100158.64;;;11.26;100.00
49801;BME280;35698;50.232;30.540;2023-04-05T03:20:05;100157.22;;;11.20;100.00
49801;BME280;35698;50.232;30.540;2023-04-05T03:21:17;100157.50;;;11.15;100.00
49801;BME280;35698;50.232;30.540;2023-04-05T03:22:21;100159.66;;;11.09;100.00
49801;BME280;35698;50.232;30.540;2023-04-05T03:23:27;100155.20;;;10.95;100.00
49801;BME280;35698;50.232;30.540;2023-04-05T03:24:38;100154.66;;;11.19;100.00
49801;BME280;35698;50.232;30.540;2023-04-05T03:25:42;100152.95;;;11.03;100.00
49801;BME280;35698;50.232;30.540;2023-04-05T03:26:54;100142.37;;;11.03;100.00
49801;BME280;35698;50.232;30.540;2023-04-05T03:27:58;100149.19;;;10.63;100.00
49801;BME280;35698;50.232;30.540;2023-04-05T03:29:02;100142.28;;;11.05;100.00
49801;BME280;35698;50.232;30.540;2023-04-05T03:30:13;100138.46;;;11.66;100.00
49801;BME280;35698;50.232;30.540;2023-04-05T03:31:17;100151.08;;;11.20;100.00
49801;BME280;35698;50.232;30.540;2023-04-05T03:32:22;100149.18;;;11.07;100.00
49801;BME280;35698;50.232;30.540;2023-04-05T03:33:34;100150.48;;;11.29;100.00
49801;BME280;35698;50.232;30.540;2023-04-05T03:34:37;100158.05;;;11.06;100.00
49801;BME280;35698;50.232;30.540;2023-04-05T03:35:41;100153.70;;;11.05;100.00
49801;BME280;35698;50.232;30.540;2023-04-05T03:39:28;100147.06;;;20.56;63.80
49801;BME280;35698;50.232;30.540;2023-04-05T03:42:03;100143.05;;;19.80;60.26
49801;BME280;35698;50.232;30.540;2023-04-05T03:43:15;100146.68;;;20.06;57.80
49801;BME280;35698;50.232;30.540;2023-04-05T03:44:19;100144.05;;;19.79;56.79
49801;BME280;35698;50.232;30.540;2023-04-05T03:45:30;100148.31;;;19.72;57.24
49801;BME280;35698;50.232;30.540;2023-04-05T03:46:34;100148.81;;;19.85;58.20
49801;BME280;35698;50.232;30.540;2023-04-05T03:47:38;100137.79;;;20.06;57.48
49801;BME280;35698;50.232;30.540;2023-04-05T03:48:42;100139.17;;;19.18;59.83
49801;BME280;35698;50.232;30.540;2023-04-05T03:49:46;100139.02;;;19.19;59.39
49801;BME280;35698;50.232;30.540;2023-04-05T03:51:10;100140.91;;;19.56;59.05
49801;BME280;35698;50.232;30.540;2023-04-05T03:52:14;100135.16;;;18.94;57.95
49801;BME280;35698;50.232;30.540;2023-04-05T03:53:18;100146.74;;;18.66;57.76
49801;BME280;35698;50.232;30.540;2023-04-05T03:54:21;100132.63;;;18.06;58.90
49801;BME280;35698;50.232;30.540;2023-04-05T03:55:33;100133.47;;;18.35;61.34
49801;BME280;35698;50.232;30.540;2023-04-05T03:56:37;100132.20;;;18.40;61.02
49801;BME280;35698;50.232;30.540;2023-04-05T03:57:40;100132.21;;;18.49;61.88
49801;BME280;35698;50.232;30.540;2023-04-05T03:58:44;100137.31;;;18.62;59.37
49801;BME280;35698;50.232;30.540;2023-04-05T03:59:56;100135.61;;;18.80;60.16
49801;BME280;35698;50.232;30.540;2023-04-05T04:01:01;100138.00;;;18.83;60.61
49801;BME280;35698;50.232;30.540;2023-04-05T04:02:04;100140.80;;;18.91;60.82
49801;BME280;35698;50.232;30.540;2023-04-05T04:03:09;100134.41;;;19.49;58.16
49801;BME280;35698;50.232;30.540;2023-04-05T04:04:12;100135.46;;;33.47;100.00
49801;BME280;35698;50.232;30.540;2023-04-05T04:05:16;100158.17;;;23.06;100.00
49801;BME280;35698;50.232;30.540;2023-04-05T04:06:27;100179.27;;;18.90;100.00
49801;BME280;35698;50.232;30.540;2023-04-05T04:07:32;100178.24;;;15.05;100.00
49801;BME280;35698;50.232;30.540;2023-04-05T04:08:35;100174.31;;;13.68;100.00
49801;BME280;35698;50.232;30.540;2023-04-05T04:09:47;100169.64;;;12.83;100.00
49801;BME280;35698;50.232;30.540;2023-04-05T04:10:51;100171.20;;;12.33;100.00
49801;BME280;35698;50.232;30.540;2023-04-05T04:12:03;100168.94;;;12.54;100.00
49801;BME280;35698;50.232;30.540;2023-04-05T04:13:07;100181.34;;;12.26;100.00
49801;BME280;35698;50.232;30.540;2023-04-05T04:14:11;100168.84;;;12.28;100.00
49801;BME280;35698;50.232;30.540;2023-04-05T04:15:14;100169.64;;;12.16;100.00
49801;BME280;35698;50.232;30.540;2023-04-05T04:16:38;100153.81;;;30.24;100.00
49801;BME280;35698;50.232;30.540;2023-04-05T04:17:50;100153.67;;;19.72;100.00
49801;BME280;35698;50.232;30.540;2023-04-05T04:18:53;100148.38;;;18.09;100.00
49801;BME280;35698;50.232;30.540;2023-04-05T04:20:06;100142.77;;;18.12;100.00
49801;BME280;35698;50.232;30.540;2023-04-05T04:21:10;100133.80;;;17.73;100.00
49801;BME280;35698;50.232;30.540;2023-04-05T04:22:14;100134.72;;;17.62;100.00
49801;BME280;35698;50.232;30.540;2023-04-05T04:23:25;100132.14;;;17.82;100.00
49801;BME280;35698;50.232;30.540;2023-04-05T04:24:29;100125.98;;;17.91;99.41
49801;BME280;35698;50.232;30.540;2023-04-05T04:25:32;100125.43;;;17.97;81.94
49801;BME280;35698;50.232;30.540;2023-04-05T04:26:36;100123.85;;;17.85;73.41
49801;BME280;35698;50.232;30.540;2023-04-05T04:27:41;100123.28;;;17.81;71.06
49801;BME280;35698;50.232;30.540;2023-04-05T04:29:03;100135.26;;;17.56;72.13
49801;BME280;35698;50.232;30.540;2023-04-05T04:30:15;100129.74;;;17.79;73.10
49801;BME280;35698;50.232;30.540;2023-04-05T04:31:19;100130.72;;;17.47;73.81
49801;BME280;35698;50.232;30.540;2023-04-05T04:32:31;100131.52;;;17.38;72.46
49801;BME280;35698;50.232;30.540;2023-04-05T04:33:35;100140.50;;;17.27;71.86
49801;BME280;35698;50.232;30.540;2023-04-05T04:34:47;100134.11;;;15.81;78.38
49801;BME280;35698;50.232;30.540;2023-04-05T04:35:50;100140.59;;;14.88;84.03
49801;BME280;35698;50.232;30.540;2023-04-05T04:36:57;100150.31;;;14.54;85.38
49801;BME280;35698;50.232;30.540;2023-04-05T04:38:08;100143.69;;;14.59;89.09
49801;BME280;35698;50.232;30.540;2023-04-05T04:39:12;100140.91;;;14.37;88.34
49801;BME280;35698;50.232;30.540;2023-04-05T04:40:18;100132.53;;;14.06;100.00
49801;BME280;35698;50.232;30.540;2023-04-05T04:41:31;100139.38;;;14.22;100.00
49801;BME280;35698;50.232;30.540;2023-04-05T04:42:35;100130.84;;;13.82;100.00
49801;BME280;35698;50.232;30.540;2023-04-05T04:43:38;100134.24;;;13.84;100.00
49801;BME280;35698;50.232;30.540;2023-04-05T04:44:50;100141.91;;;13.99;100.00
49801;BME280;35698;50.232;30.540;2023-04-05T04:45:54;100142.89;;;14.22;100.00
49801;BME280;35698;50.232;30.540;2023-04-05T04:48:19;100143.50;;;14.02;100.00
49801;BME280;35698;50.232;30.540;2023-04-05T04:49:23;100137.45;;;14.00;100.00
49801;BME280;35698;50.232;30.540;2023-04-05T04:50:35;100135.09;;;14.32;100.00
49801;BME280;35698;50.232;30.540;2023-04-05T04:51:39;100132.93;;;14.37;100.00
49801;BME280;35698;50.232;30.540;2023-04-05T04:52:50;100132.39;;;14.45;100.00
49801;BME280;35698;50.232;30.540;2023-04-05T04:53:57;100121.74;;;14.21;100.00
49801;BME280;35698;50.232;30.540;2023-04-05T04:55:11;100130.73;;;14.31;100.00
49801;BME280;35698;50.232;30.540;2023-04-05T04:56:17;100127.11;;;14.08;100.00
49801;BME280;35698;50.232;30.540;2023-04-05T04:57:29;100126.09;;;13.98;100.00
49801;BME280;35698;50.232;30.540;2023-04-05T04:58:32;100128.82;;;13.85;100.00
49801;BME280;35698;50.232;30.540;2023-04-05T04:59:44;100120.48;;;13.90;100.00
49801;BME280;35698;50.232;30.540;2023-04-05T05:00:48;100128.98;;;14.19;100.00
49801;BME280;35698;50.232;30.540;2023-04-05T05:02:11;100128.75;;;14.22;100.00
49801;BME280;35698;50.232;30.540;2023-04-05T05:03:23;100133.61;;;14.04;100.00
49801;BME280;35698;50.232;30.540;2023-04-05T05:04:26;100128.30;;;14.04;99.37
49801;BME280;35698;50.232;30.540;2023-04-05T05:05:49;100133.84;;;14.01;100.00
49801;BME280;35698;50.232;30.540;2023-04-05T05:07:01;100136.71;;;13.74;100.00
49801;BME280;35698;50.232;30.540;2023-04-05T05:08:04;100134.38;;;13.69;100.00
49801;BME280;35698;50.232;30.540;2023-04-05T05:09:26;100138.84;;;13.69;100.00
49801;BME280;35698;50.232;30.540;2023-04-05T05:10:41;100138.92;;;14.04;98.04
49801;BME280;35698;50.232;30.540;2023-04-05T05:11:46;100139.70;;;13.93;100.00
49801;BME280;35698;50.232;30.540;2023-04-05T05:13:07;100133.67;;;14.15;100.00
49801;BME280;35698;50.232;30.540;2023-04-05T05:14:20;100130.00;;;14.29;100.00
49801;BME280;35698;50.232;30.540;2023-04-05T05:15:24;100121.97;;;14.18;100.00
49801;BME280;35698;50.232;30.540;2023-04-05T05:16:46;100116.94;;;14.26;100.00
49801;BME280;35698;50.232;30.540;2023-04-05T05:17:58;100106.84;;;13.83;100.00
49801;BME280;35698;50.232;30.540;2023-04-05T05:19:01;100108.36;;;13.74;100.00
49801;BME280;35698;50.232;30.540;2023-04-05T05:20:24;100112.41;;;13.67;100.00
49801;BME280;35698;50.232;30.540;2023-04-05T05:21:36;100103.08;;;13.62;100.00
49801;BME280;35698;50.232;30.540;2023-04-05T05:22:40;100106.39;;;13.53;100.00
49801;BME280;35698;50.232;30.540;2023-04-05T05:24:02;100110.14;;;13.37;100.00
49801;BME280;35698;50.232;30.540;2023-04-05T05:25:06;100116.61;;;13.33;100.00
49801;BME280;35698;50.232;30.540;2023-04-05T05:26:11;100115.64;;;13.47;100.00
49801;BME280;35698;50.232;30.540;2023-04-05T05:27:14;100118.27;;;13.60;100.00
49801;BME280;35698;50.232;30.540;2023-04-05T05:28:19;100116.32;;;13.74;100.00
49801;BME280;35698;50.232;30.540;2023-04-05T05:29:27;100117.83;;;13.66;100.00
49801;BME280;35698;50.232;30.540;2023-04-05T05:30:39;100117.39;;;13.96;100.00
49801;BME280;35698;50.232;30.540;2023-04-05T05:33:01;100116.20;;;14.00;100.00
49801;BME280;35698;50.232;30.540;2023-04-05T05:34:05;100118.23;;;13.72;100.00
49801;BME280;35698;50.232;30.540;2023-04-05T05:35:17;100117.97;;;13.52;100.00
49801;BME280;35698;50.232;30.540;2023-04-05T05:36:21;100114.47;;;13.51;100.00
49801;BME280;35698;50.232;30.540;2023-04-05T05:37:33;100114.58;;;13.86;100.00
49801;BME280;35698;50.232;30.540;2023-04-05T05:38:37;100111.64;;;13.78;100.00
49801;BME280;35698;50.232;30.540;2023-04-05T05:39:48;100107.39;;;13.99;100.00
49801;BME280;35698;50.232;30.540;2023-04-05T05:40:56;100099.75;;;13.95;100.00
49801;BME280;35698;50.232;30.540;2023-04-05T05:42:07;100097.89;;;14.08;100.00
49801;BME280;35698;50.232;30.540;2023-04-05T05:43:10;100090.72;;;13.97;100.00
49801;BME280;35698;50.232;30.540;2023-04-05T05:44:15;100080.94;;;13.98;100.00
49801;BME280;35698;50.232;30.540;2023-04-05T05:45:27;100085.30;;;13.99;100.00
49801;BME280;35698;50.232;30.540;2023-04-05T05:46:30;100088.03;;;13.86;100.00
49801;BME280;35698;50.232;30.540;2023-04-05T05:47:42;100089.25;;;13.93;100.00
49801;BME280;35698;50.232;30.540;2023-04-05T05:48:48;100091.05;;;13.93;100.00
49801;BME280;35698;50.232;30.540;2023-04-05T05:50:05;100103.03;;;14.22;100.00
49801;BME280;35698;50.232;30.540;2023-04-05T05:51:09;100099.81;;;14.06;100.00
49801;BME280;35698;50.232;30.540;2023-04-05T05:52:13;100107.78;;;14.06;100.00
49801;BME280;35698;50.232;30.540;2023-04-05T05:53:25;100106.47;;;14.35;100.00
49801;BME280;35698;50.232;30.540;2023-04-05T05:54:28;100110.05;;;14.23;100.00
49801;BME280;35698;50.232;30.540;2023-04-05T05:55:40;100111.78;;;14.35;100.00
49801;BME280;35698;50.232;30.540;2023-04-05T05:56:43;100104.11;;;13.96;100.00
49801;BME280;35698;50.232;30.540;2023-04-05T05:57:55;100102.98;;;14.11;100.00
49801;BME280;35698;50.232;30.540;2023-04-05T05:58:59;100101.11;;;14.00;100.00
49801;BME280;35698;50.232;30.540;2023-04-05T06:00:11;100097.95;;;13.95;100.00
49801;BME280;35698;50.232;30.540;2023-04-05T06:01:15;100099.36;;;13.64;100.00
49801;BME280;35698;50.232;30.540;2023-04-05T06:02:27;100091.76;;;13.84;100.00
49801;BME280;35698;50.232;30.540;2023-04-05T06:03:31;100092.94;;;13.80;100.00
49801;BME280;35698;50.232;30.540;2023-04-05T06:04:45;100097.41;;;13.79;100.00
49801;BME280;35698;50.232;30.540;2023-04-05T06:05:56;100100.83;;;13.68;100.00
49801;BME280;35698;50.232;30.540;2023-04-05T06:07:01;100093.61;;;13.70;100.00
49801;BME280;35698;50.232;30.540;2023-04-05T06:08:07;100099.17;;;13.55;100.00
49801;BME280;35698;50.232;30.540;2023-04-05T06:09:11;100093.53;;;13.59;100.00
49801;BME280;35698;50.232;30.540;2023-04-05T06:10:23;100099.91;;;13.57;100.00
49801;BME280;35698;50.232;30.540;2023-04-05T06:11:26;100102.45;;;13.58;100.00